Time;durP1;ratioP1;P1;durP2;ratioP2;P2;SDS_P1;SDS_P2;PMS_P1;PMS_P2;Temp;Humidity;BMP_temperature;BMP_pressure;BME280_temperature;BME280_humidity;BME280_pressure;Samples;Min_cycle;Max_cycle;Signal;HPM_P1;HPM_P2
2023/07/12 14:13:16;;;;;;;6.05;2.60;;;;;;;;;;5004134;28;20475;-78
2023/07/12 14:15:42;;;;;;;6.82;2.42;;;;;;;;;;4989087;28;20041;-80
2023/07/12 14:18:09;;;;;;;3.13;2.03;;;;;;;;;;4989051;28;20018;-78
2023/07/12 14:20:35;;;;;;;3.17;2.30;;;;;;;;;;4989564;28;20460;-77
2023/07/12 14:23:00;;;;;;;3.50;2.75;;;;;;;;;;4989747;28;20058;-78
2023/07/12 14:25:25;;;;;;;8.45;3.08;;;;;;;;;;4989057;28;20026;-78
2023/07/12 14:27:51;;;;;;;6.18;2.78;;;;;;;;;;4989178;28;20058;-78
2023/07/12 14:30:16;;;;;;;6.80;2.50;;;;;;;;;;4988349;28;20050;-79
2023/07/12 14:32:46;;;;;;;12.15;4.32;;;;;;;;;;5004677;28;20033;-78
2023/07/12 14:35:18;;;;;;;20.38;3.40;;;;;;;;;;4988018;28;20048;-78
2023/07/12 14:37:44;;;;;;;3.88;2.38;;;;;;;;;;4988648;28;20541;-77
2023/07/12 14:40:14;;;;;;;3.08;2.28;;;;;;;;;;4988270;28;20019;-77
2023/07/12 14:42:40;;;;;;;3.50;2.17;;;;;;;;;;5003268;28;20113;-78
2023/07/12 14:45:12;;;;;;;4.97;2.40;;;;;;;;;;5003367;28;20061;-77
2023/07/12 14:47:37;;;;;;;3.42;2.03;;;;;;;;;;5005052;28;20060;-75
2023/07/12 14:50:05;;;;;;;5.28;2.05;;;;;;;;;;5006047;28;20027;-76
2023/07/12 14:52:32;;;;;;;3.28;1.90;;;;;;;;;;4989794;28;20022;-76
2023/07/12 14:55:00;;;;;;;5.38;2.50;;;;;;;;;;5005668;28;20027;-76
2023/07/12 14:57:27;;;;;;;2.65;2.08;;;;;;;;;;4989048;28;20030;-75
2023/07/12 14:59:53;;;;;;;5.50;2.10;;;;;;;;;;4987998;28;20041;-76
2023/07/12 15:02:23;;;;;;;5.25;2.10;;;;;;;;;;4989840;28;20027;-76
2023/07/12 15:04:53;;;;;;;3.58;2.40;;;;;;;;;;4990273;28;20053;-75
2023/07/12 15:07:24;;;;;;;5.05;2.90;;;;;;;;;;4989525;28;20022;-76
2023/07/12 15:09:51;;;;;;;6.43;2.60;;;;;;;;;;5002939;28;20026;-77
2023/07/12 15:12:48;;;;;;;5.97;2.92;;;;;;;;;;4985468;28;20035;-76
2023/07/12 15:15:19;;;;;;;4.90;2.45;;;;;;;;;;4974159;28;20029;-76
2023/07/12 15:18:01;;;;;;;5.90;2.70;;;;;;;;;;4975582;28;20023;-76
2023/07/12 15:20:27;;;;;;;11.20;3.20;;;;;;;;;;4975557;28;20023;-77
2023/07/12 15:22:53;;;;;;;5.47;3.08;;;;;;;;;;4989222;28;20114;-78
2023/07/12 15:25:20;;;;;;;4.65;3.05;;;;;;;;;;4990228;28;20038;-77
2023/07/12 15:27:46;;;;;;;5.70;3.28;;;;;;;;;;4973567;28;20514;-75
2023/07/12 15:30:14;;;;;;;4.47;3.08;;;;;;;;;;4974262;28;20082;-75
2023/07/12 15:32:39;;;;;;;4.75;3.08;;;;;;;;;;4974611;28;20082;-77
2023/07/12 15:35:22;;;;;;;6.28;2.95;;;;;;;;;;4989254;28;20122;-77
2023/07/12 15:37:48;;;;;;;6.10;3.13;;;;;;;;;;4989169;28;20027;-76
2023/07/12 15:40:14;;;;;;;7.40;3.45;;;;;;;;;;4986927;28;20027;-77
2023/07/12 15:42:39;;;;;;;4.40;3.00;;;;;;;;;;4970307;28;20068;-77
2023/07/12 15:45:05;;;;;;;8.45;3.00;;;;;;;;;;4968607;28;20022;-76
2023/07/12 15:47:30;;;;;;;4.82;2.97;;;;;;;;;;4985859;28;20303;-77
2023/07/12 15:49:55;;;;;;;6.20;2.90;;;;;;;;;;5031014;28;20027;-77
2023/07/12 15:52:26;;;;;;;5.40;3.22;;;;;;;;;;4986709;28;20022;-76
2023/07/12 15:54:51;;;;;;;6.07;2.88;;;;;;;;;;5043279;28;20033;-76
2023/07/12 15:57:17;;;;;;;5.00;3.03;;;;;;;;;;5043842;28;20040;-77
2023/07/12 15:59:42;;;;;;;6.18;2.83;;;;;;;;;;4979837;28;20027;-76
2023/07/12 16:02:16;;;;;;;5.70;2.90;;;;;;;;;;5028899;28;20073;-76
2023/07/12 16:04:47;;;;;;;6.72;2.75;;;;;;;;;;5029725;28;20385;-77
2023/07/12 16:07:14;;;;;;;9.02;2.90;;;;;;;;;;5004149;28;20537;-76
2023/07/12 16:09:40;;;;;;;7.20;3.25;;;;;;;;;;5010041;28;20450;-76
2023/07/12 16:12:12;;;;;;;17.92;3.42;;;;;;;;;;4981977;28;20027;-76
2023/07/12 16:14:37;;;;;;;6.07;2.83;;;;;;;;;;5048907;28;20038;-77
2023/07/12 16:17:02;;;;;;;7.30;2.90;;;;;;;;;;4996445;28;20156;-76
2023/07/12 16:19:29;;;;;;;6.55;3.10;;;;;;;;;;4970409;28;20052;-76
2023/07/12 16:21:55;;;;;;;5.57;2.80;;;;;;;;;;4969025;28;20548;-76
2023/07/12 16:24:20;;;;;;;8.45;4.28;;;;;;;;;;4982659;28;20035;-77
2023/07/12 16:26:46;;;;;;;8.80;3.80;;;;;;;;;;4967922;28;20029;-77
2023/07/12 16:29:11;;;;;;;9.98;3.20;;;;;;;;;;4967574;28;20459;-77
2023/07/12 16:31:45;;;;;;;7.22;3.17;;;;;;;;;;4968989;28;20069;-77
2023/07/12 16:34:17;;;;;;;7.70;3.10;;;;;;;;;;4983911;28;20031;-77
2023/07/12 16:36:44;;;;;;;12.20;3.72;;;;;;;;;;5003034;28;20035;-77
2023/07/12 16:39:11;;;;;;;14.32;3.30;;;;;;;;;;4997018;28;20045;-76
2023/07/12 16:41:37;;;;;;;6.57;3.10;;;;;;;;;;5004111;28;20028;-77
2023/07/12 16:44:03;;;;;;;3.50;2.00;;;;;;;;;;5044528;28;20086;-76
2023/07/12 16:46:29;;;;;;;4.72;2.50;;;;;;;;;;5046763;28;20083;-77
2023/07/12 16:48:55;;;;;;;4.18;2.30;;;;;;;;;;4988522;28;20109;-78
2023/07/12 16:51:47;;;;;;;3.10;1.92;;;;;;;;;;5023882;28;20013;-78
2023/07/12 16:54:12;;;;;;;3.97;2.38;;;;;;;;;;5016420;28;20029;-78
2023/07/12 16:56:38;;;;;;;4.35;2.20;;;;;;;;;;5029388;28;20505;-78
2023/07/12 16:59:03;;;;;;;4.03;1.80;;;;;;;;;;5045920;28;20026;-78
2023/07/12 17:01:32;;;;;;;1.90;1.80;;;;;;;;;;5054053;28;20026;-78
2023/07/12 17:03:58;;;;;;;2.28;1.95;;;;;;;;;;5020303;28;20500;-76
2023/07/12 17:06:23;;;;;;;5.05;2.00;;;;;;;;;;4987927;28;20026;-76
2023/07/12 17:08:50;;;;;;;2.28;1.77;;;;;;;;;;4978813;28;20019;-79
2023/07/12 17:11:19;;;;;;;2.33;2.13;;;;;;;;;;4984436;28;20497;-76
2023/07/12 17:13:45;;;;;;;8.95;2.83;;;;;;;;;;4987867;28;20061;-77
2023/07/12 17:16:15;;;;;;;3.00;2.03;;;;;;;;;;4968896;28;20058;-76
2023/07/12 17:18:41;;;;;;;4.85;2.33;;;;;;;;;;4971010;28;20114;-76
2023/07/12 17:21:19;;;;;;;3.95;2.00;;;;;;;;;;5012711;28;20452;-77
2023/07/12 17:23:46;;;;;;;2.67;1.98;;;;;;;;;;5004844;28;20037;-76
2023/07/12 17:26:14;;;;;;;4.38;2.17;;;;;;;;;;5013335;28;20020;-78
2023/07/12 17:28:40;;;;;;;2.20;2.00;;;;;;;;;;5074479;28;20016;-78
2023/07/12 17:31:14;;;;;;;5.00;2.28;;;;;;;;;;5035259;28;20046;-78
2023/07/12 17:33:39;;;;;;;6.22;2.33;;;;;;;;;;5001817;28;20061;-78
2023/07/12 17:36:05;;;;;;;3.75;2.20;;;;;;;;;;4986794;28;20019;-78
2023/07/12 17:38:32;;;;;;;6.40;2.30;;;;;;;;;;4986642;28;20031;-77
2023/07/12 17:40:58;;;;;;;3.72;2.28;;;;;;;;;;4968114;28;20457;-77
2023/07/12 17:43:28;;;;;;;4.25;2.53;;;;;;;;;;4974492;28;20031;-77
2023/07/12 17:45:54;;;;;;;3.97;2.10;;;;;;;;;;4968103;28;20185;-76
2023/07/12 17:48:20;;;;;;;2.33;2.00;;;;;;;;;;4983204;28;20026;-76
2023/07/12 17:50:49;;;;;;;3.80;2.15;;;;;;;;;;4968587;28;20038;-76
2023/07/12 17:53:19;;;;;;;2.85;2.35;;;;;;;;;;4983262;28;20517;-76
2023/07/12 17:55:47;;;;;;;2.15;1.95;;;;;;;;;;4980608;28;20025;-76
2023/07/12 17:58:13;;;;;;;3.40;2.45;;;;;;;;;;5084713;28;20025;-76
2023/07/12 18:00:40;;;;;;;3.85;2.10;;;;;;;;;;5069449;28;20070;-76
2023/07/12 18:03:11;;;;;;;3.28;2.28;;;;;;;;;;4984126;28;20370;-79
2023/07/12 18:05:41;;;;;;;3.75;2.20;;;;;;;;;;5025727;28;20097;-77
2023/07/12 18:08:09;;;;;;;2.70;2.20;;;;;;;;;;5009414;28;20046;-77
2023/07/12 18:10:36;;;;;;;2.40;2.20;;;;;;;;;;5058060;28;20086;-77
2023/07/12 18:13:02;;;;;;;3.38;1.83;;;;;;;;;;5069249;28;20578;-77
2023/07/12 18:15:27;;;;;;;2.50;2.00;;;;;;;;;;5069426;28;20035;-77
2023/07/12 18:17:53;;;;;;;4.03;2.00;;;;;;;;;;5069820;28;20024;-77
2023/07/12 18:20:18;;;;;;;3.92;2.40;;;;;;;;;;5062253;28;20064;-79
2023/07/12 18:22:44;;;;;;;4.80;2.30;;;;;;;;;;4978797;28;20031;-78
2023/07/12 18:25:15;;;;;;;2.80;2.33;;;;;;;;;;5008562;28;20036;-78
2023/07/12 18:27:42;;;;;;;3.47;2.50;;;;;;;;;;4981864;28;20457;-78
2023/07/12 18:30:09;;;;;;;2.67;2.10;;;;;;;;;;4970495;28;20105;-78
2023/07/12 18:32:34;;;;;;;4.47;1.98;;;;;;;;;;4993613;28;20016;-79
2023/07/12 18:34:59;;;;;;;2.72;2.53;;;;;;;;;;5011607;28;20031;-78
2023/07/12 18:37:25;;;;;;;2.35;2.15;;;;;;;;;;4993752;28;20347;-79
2023/07/12 18:39:52;;;;;;;4.03;2.53;;;;;;;;;;4970870;28;20030;-79
2023/07/12 18:42:21;;;;;;;3.80;2.58;;;;;;;;;;4969979;28;20026;-78
2023/07/12 18:44:47;;;;;;;2.85;2.63;;;;;;;;;;4970249;28;20030;-78
2023/07/12 18:47:14;;;;;;;5.70;3.03;;;;;;;;;;4985179;28;20041;-78
2023/07/12 18:49:39;;;;;;;3.40;3.10;;;;;;;;;;4980618;28;20027;-79
2023/07/12 18:52:18;;;;;;;4.38;3.22;;;;;;;;;;4973476;28;20027;-78
2023/07/12 18:54:43;;;;;;;3.50;3.20;;;;;;;;;;4973213;28;20022;-77
2023/07/12 18:57:11;;;;;;;3.10;2.83;;;;;;;;;;4987576;28;20394;-77
2023/07/12 18:59:36;;;;;;;5.68;3.45;;;;;;;;;;4987870;28;20031;-78
2023/07/12 19:02:02;;;;;;;7.95;3.42;;;;;;;;;;4970305;28;20011;-78
2023/07/12 19:04:28;;;;;;;6.80;3.20;;;;;;;;;;4994601;28;20062;-78
2023/07/12 19:06:54;;;;;;;3.78;2.90;;;;;;;;;;4976897;28;20078;-78
2023/07/12 19:09:19;;;;;;;8.52;3.25;;;;;;;;;;5005999;28;20057;-79
2023/07/12 19:11:45;;;;;;;4.60;3.53;;;;;;;;;;4990208;28;20022;-80
2023/07/12 19:14:20;;;;;;;5.30;3.20;;;;;;;;;;5005511;28;20038;-78
2023/07/12 19:16:47;;;;;;;3.70;2.85;;;;;;;;;;5004235;28;20030;-79
2023/07/12 19:19:13;;;;;;;7.55;2.95;;;;;;;;;;4993231;28;20101;-79
2023/07/12 19:21:43;;;;;;;6.32;3.30;;;;;;;;;;5016877;28;20088;-79
2023/07/12 19:24:09;;;;;;;7.00;3.40;;;;;;;;;;4985911;28;20027;-79
2023/07/12 19:26:35;;;;;;;6.05;3.22;;;;;;;;;;4969643;28;20030;-79
2023/07/12 19:29:00;;;;;;;8.27;3.53;;;;;;;;;;4972361;28;20038;-79
2023/07/12 19:31:31;;;;;;;6.07;3.60;;;;;;;;;;4999175;28;20051;-79
2023/07/12 19:33:58;;;;;;;12.13;3.95;;;;;;;;;;4969987;28;20267;-79
2023/07/12 19:36:25;;;;;;;9.32;4.20;;;;;;;;;;4973431;28;20378;-79
2023/07/12 19:38:51;;;;;;;7.63;4.53;;;;;;;;;;4968555;28;20034;-79
2023/07/12 19:41:19;;;;;;;11.88;5.18;;;;;;;;;;4970306;28;20023;-79
2023/07/12 19:43:45;;;;;;;10.32;5.05;;;;;;;;;;4977772;28;20024;-79
2023/07/12 19:46:10;;;;;;;8.40;5.35;;;;;;;;;;4986011;28;20397;-79
2023/07/12 19:48:36;;;;;;;6.57;5.15;;;;;;;;;;4981485;28;20030;-79
2023/07/12 19:51:02;;;;;;;8.98;4.78;;;;;;;;;;4972317;28;20031;-80
2023/07/12 19:53:27;;;;;;;15.98;3.80;;;;;;;;;;4974111;28;20031;-79
2023/07/12 19:55:52;;;;;;;6.43;3.17;;;;;;;;;;4988601;28;20019;-80
2023/07/12 19:58:19;;;;;;;7.55;3.90;;;;;;;;;;4979657;28;20031;-80
2023/07/12 20:00:47;;;;;;;6.05;4.85;;;;;;;;;;4990941;28;20037;-79
2023/07/12 20:03:14;;;;;;;4.95;3.80;;;;;;;;;;4974148;28;20059;-79
2023/07/12 20:05:39;;;;;;;15.15;4.00;;;;;;;;;;4972971;28;20083;-80
2023/07/12 20:08:05;;;;;;;10.82;3.38;;;;;;;;;;4987628;28;20054;-79
2023/07/12 20:10:31;;;;;;;3.35;3.05;;;;;;;;;;4986177;28;20048;-79
2023/07/12 20:12:57;;;;;;;7.78;3.38;;;;;;;;;;4988680;28;20063;-79
2023/07/12 20:15:23;;;;;;;7.43;3.08;;;;;;;;;;4985770;28;20163;-78
2023/07/12 20:17:48;;;;;;;8.57;3.55;;;;;;;;;;4967332;28;20643;-79
2023/07/12 20:20:14;;;;;;;4.93;3.55;;;;;;;;;;4963180;28;20035;-79
2023/07/12 20:22:41;;;;;;;6.18;4.15;;;;;;;;;;4962395;28;20083;-79
2023/07/12 20:25:09;;;;;;;11.88;3.67;;;;;;;;;;4978930;28;20031;-79
2023/07/12 20:27:34;;;;;;;9.85;4.10;;;;;;;;;;5020295;28;20060;-79
2023/07/12 20:30:00;;;;;;;8.95;4.03;;;;;;;;;;5004827;28;20030;-79
2023/07/12 20:32:26;;;;;;;6.40;4.10;;;;;;;;;;5005888;28;20031;-79
2023/07/12 20:34:51;;;;;;;18.13;4.35;;;;;;;;;;4980607;28;20026;-80
2023/07/12 20:37:16;;;;;;;7.05;4.35;;;;;;;;;;5001849;28;20062;-80
2023/07/12 20:39:42;;;;;;;6.50;4.65;;;;;;;;;;4993140;28;20030;-79
2023/07/12 20:42:08;;;;;;;7.72;4.60;;;;;;;;;;5007364;28;20022;-79
2023/07/12 20:44:33;;;;;;;5.93;4.63;;;;;;;;;;4986125;28;20038;-80
2023/07/12 20:47:02;;;;;;;7.10;5.20;;;;;;;;;;4964835;28;20027;-80
2023/07/12 20:49:30;;;;;;;7.72;4.70;;;;;;;;;;4977059;28;20044;-79
2023/07/12 20:52:01;;;;;;;7.72;5.07;;;;;;;;;;4977497;28;20873;-79
2023/07/12 20:54:26;;;;;;;8.30;5.20;;;;;;;;;;4991051;28;20111;-80
2023/07/12 20:56:51;;;;;;;17.90;5.90;;;;;;;;;;4986730;28;20057;-79
2023/07/12 20:59:18;;;;;;;7.10;4.97;;;;;;;;;;4997901;28;20041;-79
2023/07/12 21:01:43;;;;;;;7.68;4.68;;;;;;;;;;4997460;28;20474;-79
2023/07/12 21:04:09;;;;;;;7.55;4.55;;;;;;;;;;4992832;28;20108;-80
2023/07/12 21:06:34;;;;;;;9.77;5.40;;;;;;;;;;4978155;28;20205;-79
2023/07/12 21:09:00;;;;;;;10.75;5.90;;;;;;;;;;4980323;28;21724;-79
2023/07/12 21:11:25;;;;;;;9.80;5.85;;;;;;;;;;4990606;28;20094;-80
2023/07/12 21:13:50;;;;;;;9.60;6.43;;;;;;;;;;4984886;28;20039;-79
2023/07/12 21:16:17;;;;;;;6.75;5.55;;;;;;;;;;4985460;28;20108;-79
2023/07/12 21:18:43;;;;;;;15.52;6.95;;;;;;;;;;4998038;28;20047;-79
2023/07/12 21:21:09;;;;;;;12.38;7.47;;;;;;;;;;4993503;28;20026;-79
2023/07/12 21:23:38;;;;;;;15.00;7.90;;;;;;;;;;4987045;28;20036;-79
2023/07/12 21:26:04;;;;;;;14.95;8.55;;;;;;;;;;4986288;28;20027;-77
2023/07/12 21:28:30;;;;;;;15.23;8.38;;;;;;;;;;4978646;28;20389;-78
2023/07/12 21:30:56;;;;;;;13.02;8.57;;;;;;;;;;4968378;28;20023;-76
2023/07/12 21:33:22;;;;;;;13.73;8.98;;;;;;;;;;4988096;28;20487;-78
2023/07/12 21:35:55;;;;;;;16.92;8.60;;;;;;;;;;4966814;28;20035;-78
2023/07/12 21:38:22;;;;;;;12.65;8.32;;;;;;;;;;4953585;28;20039;-77
2023/07/12 21:40:47;;;;;;;13.60;8.23;;;;;;;;;;4983227;28;20039;-80
2023/07/12 21:43:14;;;;;;;12.90;8.02;;;;;;;;;;4990518;28;20032;-77
2023/07/12 21:45:41;;;;;;;13.80;7.80;;;;;;;;;;4981960;28;20042;-78
2023/07/12 21:48:07;;;;;;;18.80;8.30;;;;;;;;;;4986868;28;20018;-77
2023/07/12 21:50:34;;;;;;;12.55;8.07;;;;;;;;;;4989718;28;20550;-77
2023/07/12 21:52:59;;;;;;;10.75;8.07;;;;;;;;;;4986518;28;20022;-78
2023/07/12 21:55:24;;;;;;;10.77;7.40;;;;;;;;;;4961325;28;20045;-78
2023/07/12 21:57:50;;;;;;;13.05;7.43;;;;;;;;;;4967725;28;20038;-79
2023/07/12 22:00:18;;;;;;;15.75;7.07;;;;;;;;;;4952123;28;20084;-78
2023/07/12 22:02:44;;;;;;;9.13;6.75;;;;;;;;;;4959166;28;20050;-80
2023/07/12 22:05:10;;;;;;;9.15;6.30;;;;;;;;;;4969720;28;20043;-77
2023/07/12 22:07:35;;;;;;;14.45;6.80;;;;;;;;;;4980398;28;20080;-77
2023/07/12 22:10:00;;;;;;;11.55;6.72;;;;;;;;;;4966727;28;20354;-77
2023/07/12 22:12:26;;;;;;;8.88;6.90;;;;;;;;;;4971682;28;20214;-77
2023/07/12 22:14:51;;;;;;;10.93;6.07;;;;;;;;;;4977179;28;20023;-79
2023/07/12 22:17:17;;;;;;;9.43;5.55;;;;;;;;;;4964809;28;20039;-78
2023/07/12 22:19:42;;;;;;;11.95;6.22;;;;;;;;;;4985624;28;20026;-78
2023/07/12 22:22:11;;;;;;;8.50;6.38;;;;;;;;;;4997519;28;20410;-78
2023/07/12 22:24:38;;;;;;;9.38;7.22;;;;;;;;;;5000242;28;20057;-78
2023/07/12 22:27:06;;;;;;;14.20;7.50;;;;;;;;;;4993942;28;20444;-78
2023/07/12 22:29:33;;;;;;;14.80;7.47;;;;;;;;;;5011000;28;20026;-78
2023/07/12 22:31:58;;;;;;;10.80;7.38;;;;;;;;;;4998300;28;20026;-78
2023/07/12 22:34:23;;;;;;;14.52;6.95;;;;;;;;;;4987206;28;20034;-78
2023/07/12 22:36:48;;;;;;;16.27;7.82;;;;;;;;;;4995420;28;20041;-78
2023/07/12 22:39:14;;;;;;;20.88;9.10;;;;;;;;;;4989791;28;20501;-78
2023/07/12 22:41:40;;;;;;;15.80;8.85;;;;;;;;;;5035705;28;20034;-78
2023/07/12 22:44:05;;;;;;;14.90;9.18;;;;;;;;;;5000894;28;20038;-79
2023/07/12 22:46:31;;;;;;;11.65;8.40;;;;;;;;;;4986506;28;20035;-79
2023/07/12 22:48:58;;;;;;;13.35;7.70;;;;;;;;;;4991269;28;20033;-78
2023/07/12 22:51:23;;;;;;;10.77;7.22;;;;;;;;;;4992080;28;20571;-79
2023/07/12 22:53:49;;;;;;;8.23;6.35;;;;;;;;;;4985644;28;20034;-79
2023/07/12 22:56:19;;;;;;;11.38;7.47;;;;;;;;;;4990519;28;20053;-78
2023/07/12 22:58:45;;;;;;;7.75;6.30;;;;;;;;;;5002820;28;20365;-78
2023/07/12 23:01:12;;;;;;;7.93;5.93;;;;;;;;;;4993447;28;20030;-79
2023/07/12 23:03:37;;;;;;;6.18;5.40;;;;;;;;;;4986954;28;20026;-78
2023/07/12 23:06:03;;;;;;;6.93;5.32;;;;;;;;;;5002597;28;20023;-78
2023/07/12 23:08:29;;;;;;;7.32;5.55;;;;;;;;;;4996021;28;20804;-79
2023/07/12 23:10:56;;;;;;;7.63;5.18;;;;;;;;;;4995389;28;20773;-78
2023/07/12 23:13:26;;;;;;;10.85;5.55;;;;;;;;;;4997400;28;20020;-77
2023/07/12 23:15:56;;;;;;;8.77;5.88;;;;;;;;;;5003098;28;20033;-78
2023/07/12 23:18:24;;;;;;;9.77;5.93;;;;;;;;;;4996027;28;20127;-78
2023/07/12 23:20:50;;;;;;;11.15;5.78;;;;;;;;;;4970026;28;20160;-78
2023/07/12 23:23:19;;;;;;;8.70;5.78;;;;;;;;;;4978436;28;20026;-78
2023/07/12 23:25:45;;;;;;;9.98;6.30;;;;;;;;;;4977939;28;20109;-78
2023/07/12 23:28:11;;;;;;;11.20;6.25;;;;;;;;;;4978465;28;20520;-78
2023/07/12 23:30:37;;;;;;;10.02;4.68;;;;;;;;;;4994739;28;20023;-78
2023/07/12 23:33:02;;;;;;;5.95;5.30;;;;;;;;;;5008426;28;20027;-78
2023/07/12 23:35:28;;;;;;;6.75;5.80;;;;;;;;;;4996269;28;20038;-79
2023/07/12 23:37:54;;;;;;;8.57;5.40;;;;;;;;;;4988899;28;20019;-78
2023/07/12 23:40:19;;;;;;;9.75;5.78;;;;;;;;;;4984255;28;20030;-78
2023/07/12 23:42:44;;;;;;;8.45;5.88;;;;;;;;;;5018083;28;20039;-79
2023/07/12 23:45:10;;;;;;;8.63;5.65;;;;;;;;;;4952776;28;20261;-79
2023/07/12 23:47:36;;;;;;;6.78;5.30;;;;;;;;;;4955513;28;20035;-78
2023/07/12 23:50:01;;;;;;;7.07;4.93;;;;;;;;;;4955942;28;20356;-79
2023/07/12 23:52:27;;;;;;;7.95;4.90;;;;;;;;;;4983323;28;20056;-78
2023/07/12 23:54:53;;;;;;;9.80;5.10;;;;;;;;;;5011813;28;20396;-78
2023/07/12 23:57:21;;;;;;;5.65;4.82;;;;;;;;;;4984307;28;20517;-78
2023/07/12 23:59:49;;;;;;;7.03;5.53;;;;;;;;;;4987123;28;20022;-79
